Mauston, WI

12:57 PM CST on February 06, 2016 (GMT -0600)
Juneau County Weather | | Change Station
CLOSE
Current Station
Personal Weather Station
Location: Mauston, WI
Elevation: 873 ft
Nearby Weather Stations

Elev 873 ft 43.80 °N, 90.07 °W | Updated 14 seconds ago

Overcast
Overcast
33.2 °F
Feels Like 25 °F
N
10.9
Wind Variable Wind from SSW
Gusts 10.9 mph

Today
High -- | Low -- °F
--% Chance of Precip.
Yesterday
High -- | Low -- °F
Precip. -- in
Pressure 30.17 in
Visibility 10.0 miles
Clouds Scattered Clouds 1700 ft
Mostly Cloudy 12000 ft
Windchill 25 °F
Dew Point 27 °F
Humidity 77%
Rainfall 0.00 in
Snow Depth Not available.
7:11 AM 5:17 PM
Waning Crescent, 4% visible
METAR KVOK 061758Z 24007KT 10SM SCT017 BKN120 M01/M01 A3012 RMK AO2A SLP215 60000 58008
Pressure 30.17 in
Visibility 10.0 miles
Clouds Scattered Clouds 1700 ft
Mostly Cloudy 12000 ft
Windchill 25 °F
Dew Point 27 °F
Humidity 77%
Rainfall 0.00 in
Snow Depth Not available.
7:11 AM 5:17 PM
Waning Crescent, 4% visible
METAR KVOK 061758Z 24007KT 10SM SCT017 BKN120 M01/M01 A3012 RMK AO2A SLP215 60000 58008

10-Day Weather Forecast

Almanac

Astronomy

Feb. 06, 2016 Rise Set
Actual Time
Civil Twilight
Nautical Twilight
Astronomical Twilight
Moon
Length of Visible Light
Length of Day
Tomorrow will be .
, % of the Moon is Illuminated

Today's Extremes

State Highs State Lows

Community

WunderPhotos

Upload Photos

1,891,033 photos uploaded!

WunderBlog® & News

Nearby

Air Quality

  Air Quality AQ Index Pollutant
Not available.

Snow Depth

Station Depth Elevation

Earthquake Activity

City Distance Mag. Time & Date
Minimum magnitude displayed is 2.5.

Coastal Water Temperatures

Place Temperature

Stations

Nearby Weather Stations

Station Location Temp. Windchill Dew Point Humidity Wind Precip. Elev Updated Type
                   

Watches & Warnings

There are currently no watches in effect.